createdAt,value
2023-01-29T00:00:14.099Z,3.10
2023-01-29T00:01:13.738Z,2.50
2023-01-29T00:02:13.821Z,3.20
2023-01-29T00:03:13.841Z,2.80
2023-01-29T00:04:13.738Z,2.60
2023-01-29T00:05:26.972Z,3.20
2023-01-29T00:06:14.714Z,2.50
2023-01-29T00:07:13.690Z,3.10
2023-01-29T00:08:13.709Z,2.50
2023-01-29T00:09:13.698Z,2.80
2023-01-29T00:10:13.889Z,2.90
2023-01-29T00:11:13.638Z,2.60
2023-01-29T00:12:13.642Z,2.70
2023-01-29T00:13:13.637Z,2.60
2023-01-29T00:14:13.631Z,3.10
2023-01-29T00:15:13.636Z,2.70
2023-01-29T00:16:13.582Z,2.30
2023-01-29T00:17:13.601Z,2.80
2023-01-29T00:18:13.592Z,3.30
2023-01-29T00:19:13.552Z,2.50
2023-01-29T00:20:13.557Z,2.60
2023-01-29T00:21:13.571Z,3.00
2023-01-29T00:22:13.602Z,2.80
2023-01-29T00:23:13.583Z,3.10
2023-01-29T00:24:13.550Z,2.60
2023-01-29T00:25:13.525Z,2.70
2023-01-29T00:26:13.488Z,2.70
2023-01-29T00:27:13.476Z,3.60
2023-01-29T00:28:13.497Z,3.30
2023-01-29T00:29:13.450Z,3.30
2023-01-29T00:30:13.477Z,3.60
2023-01-29T00:31:13.526Z,3.50
2023-01-29T00:32:13.639Z,3.80
2023-01-29T00:33:13.466Z,3.20
2023-01-29T00:34:13.513Z,3.30
2023-01-29T00:35:13.406Z,3.30
2023-01-29T00:36:13.423Z,3.60
2023-01-29T00:37:13.410Z,3.20
2023-01-29T00:38:13.405Z,3.40
2023-01-29T00:39:13.399Z,3.40
2023-01-29T00:40:13.543Z,3.20
2023-01-29T00:41:13.331Z,3.50
2023-01-29T00:42:13.326Z,3.70
2023-01-29T00:43:13.327Z,4.00
2023-01-29T00:44:13.307Z,3.40
2023-01-29T00:45:13.285Z,3.90
2023-01-29T00:46:13.309Z,3.70
2023-01-29T00:47:13.256Z,3.90
2023-01-29T00:48:13.282Z,3.20
2023-01-29T00:49:13.245Z,3.40
2023-01-29T00:50:13.269Z,3.60
2023-01-29T00:51:13.238Z,3.50
2023-01-29T00:52:13.249Z,3.30
2023-01-29T00:53:13.210Z,3.00
2023-01-29T00:54:13.191Z,3.60
2023-01-29T00:55:13.200Z,3.70
2023-01-29T00:56:13.171Z,3.00
2023-01-29T00:57:13.155Z,3.60
2023-01-29T00:58:13.203Z,3.50
2023-01-29T00:59:13.132Z,4.00
2023-01-29T01:00:13.139Z,3.50
2023-01-29T01:01:13.206Z,3.30
2023-01-29T01:02:13.167Z,3.10
2023-01-29T01:03:13.121Z,3.90
2023-01-29T01:04:13.118Z,3.30
2023-01-29T01:05:13.092Z,3.60
2023-01-29T01:06:13.063Z,3.40
2023-01-29T01:07:13.045Z,3.60
2023-01-29T01:08:13.063Z,3.40
2023-01-29T01:09:13.032Z,3.60
2023-01-29T01:10:13.031Z,3.60
2023-01-29T01:11:13.041Z,3.90
2023-01-29T01:12:13.009Z,3.90
2023-01-29T01:13:13.083Z,3.80
2023-01-29T01:14:13.008Z,3.40
2023-01-29T01:15:12.969Z,4.00
2023-01-29T01:16:13.029Z,4.60
2023-01-29T01:17:12.952Z,4.00
2023-01-29T01:18:12.971Z,4.30
2023-01-29T01:19:12.942Z,3.60
2023-01-29T01:20:12.926Z,4.10
2023-01-29T01:21:12.929Z,4.00
2023-01-29T01:22:12.895Z,3.90
2023-01-29T01:23:12.990Z,4.10
2023-01-29T01:24:12.983Z,3.70
2023-01-29T01:25:12.866Z,3.40
2023-01-29T01:26:12.943Z,3.40
2023-01-29T01:27:12.856Z,3.90
2023-01-29T01:28:12.919Z,4.10
2023-01-29T01:29:12.839Z,3.70
2023-01-29T01:30:12.831Z,3.50
2023-01-29T01:31:12.882Z,3.30
2023-01-29T01:32:12.807Z,3.70
2023-01-29T01:33:12.813Z,3.70
2023-01-29T01:34:12.825Z,4.30
2023-01-29T01:35:12.797Z,3.70
2023-01-29T01:36:12.756Z,3.70
2023-01-29T01:37:12.753Z,3.90
2023-01-29T01:38:12.802Z,3.70
2023-01-29T01:39:12.724Z,4.00
2023-01-29T01:40:12.927Z,4.20
2023-01-29T01:41:12.703Z,3.60
2023-01-29T01:42:12.704Z,3.50
2023-01-29T01:43:12.711Z,3.70
2023-01-29T01:44:12.678Z,3.90
2023-01-29T01:45:12.661Z,4.20
2023-01-29T01:46:12.672Z,3.80
2023-01-29T01:47:12.712Z,3.70
2023-01-29T01:48:12.682Z,4.00
2023-01-29T01:49:12.615Z,3.90
2023-01-29T01:50:12.648Z,4.20
2023-01-29T01:51:12.590Z,3.70
2023-01-29T01:52:12.910Z,4.00
2023-01-29T01:53:12.607Z,4.00
2023-01-29T01:54:12.559Z,3.60
2023-01-29T01:55:12.553Z,4.20
2023-01-29T01:56:12.540Z,3.80
2023-01-29T01:57:12.590Z,4.40
2023-01-29T01:58:12.542Z,3.50
2023-01-29T01:59:12.514Z,3.20
2023-01-29T02:00:12.575Z,3.60
2023-01-29T02:01:12.557Z,3.90
2023-01-29T02:02:12.500Z,3.70
2023-01-29T02:03:12.497Z,4.40
2023-01-29T02:04:12.486Z,3.70
2023-01-29T02:05:12.459Z,3.30
2023-01-29T02:06:12.455Z,4.30
2023-01-29T02:07:12.431Z,3.40
2023-01-29T02:08:12.446Z,3.50
2023-01-29T02:09:12.406Z,4.10
2023-01-29T02:10:12.470Z,3.30
2023-01-29T02:11:12.415Z,3.70
2023-01-29T02:12:12.393Z,4.00
2023-01-29T02:13:12.390Z,4.00
2023-01-29T02:14:12.376Z,3.90
2023-01-29T02:15:12.354Z,3.40
2023-01-29T02:16:12.332Z,4.10
2023-01-29T02:17:12.372Z,3.80
2023-01-29T02:18:12.338Z,3.70
2023-01-29T02:19:12.326Z,3.90
2023-01-29T02:20:12.316Z,3.70
2023-01-29T02:21:12.290Z,3.90
2023-01-29T02:22:12.266Z,3.50
2023-01-29T02:23:12.273Z,3.70
2023-01-29T02:24:12.409Z,3.80
2023-01-29T02:25:12.232Z,3.40
2023-01-29T02:26:12.223Z,4.10
2023-01-29T02:27:12.211Z,3.90
2023-01-29T02:28:12.240Z,3.70
2023-01-29T02:29:12.215Z,3.60
2023-01-29T02:30:12.196Z,3.90
2023-01-29T02:31:12.252Z,3.40
2023-01-29T02:32:12.222Z,3.80
2023-01-29T02:33:12.163Z,3.80
2023-01-29T02:34:12.130Z,3.20
2023-01-29T02:35:12.158Z,3.40
2023-01-29T02:36:12.157Z,3.90
2023-01-29T02:37:12.107Z,3.40
2023-01-29T02:38:12.114Z,3.80
2023-01-29T02:39:12.110Z,3.20
2023-01-29T02:40:12.084Z,3.70
2023-01-29T02:41:12.119Z,4.00
2023-01-29T02:42:12.086Z,3.90
2023-01-29T02:43:12.099Z,3.80
2023-01-29T02:44:12.039Z,4.40
2023-01-29T02:45:12.084Z,3.60
2023-01-29T02:46:12.063Z,3.70
2023-01-29T02:47:12.032Z,3.90
2023-01-29T02:48:12.024Z,3.70
2023-01-29T02:49:12.042Z,3.60
2023-01-29T02:50:11.970Z,3.90
2023-01-29T02:51:11.957Z,3.60
2023-01-29T02:52:11.989Z,3.90
2023-01-29T02:53:11.972Z,3.90
2023-01-29T02:54:11.920Z,4.10
2023-01-29T02:55:11.926Z,3.40
2023-01-29T02:56:11.941Z,3.90
2023-01-29T02:57:11.898Z,4.20
2023-01-29T02:58:11.902Z,4.30
2023-01-29T02:59:11.889Z,3.70
2023-01-29T03:00:11.876Z,3.70
2023-01-29T03:01:11.904Z,4.20
2023-01-29T03:02:11.933Z,4.30
2023-01-29T03:03:11.858Z,3.60
2023-01-29T03:04:11.846Z,3.50
2023-01-29T03:05:11.816Z,4.50
2023-01-29T03:06:11.881Z,3.90
2023-01-29T03:07:11.831Z,3.70
2023-01-29T03:08:11.927Z,3.90
2023-01-29T03:09:11.784Z,4.10
2023-01-29T03:10:11.766Z,3.70
2023-01-29T03:11:11.756Z,4.70
2023-01-29T03:12:11.773Z,4.30
2023-01-29T03:13:11.759Z,4.30
2023-01-29T03:14:11.726Z,4.50
2023-01-29T03:15:11.768Z,4.60
2023-01-29T03:16:11.763Z,4.50
2023-01-29T03:17:11.710Z,4.20
2023-01-29T03:18:11.720Z,4.00
2023-01-29T03:19:11.683Z,4.70
2023-01-29T03:20:11.663Z,4.30
2023-01-29T03:21:11.649Z,4.20
2023-01-29T03:22:11.647Z,4.40
2023-01-29T03:23:11.655Z,4.80
2023-01-29T03:24:11.706Z,4.30
2023-01-29T03:25:11.613Z,4.20
2023-01-29T03:26:11.642Z,4.40
2023-01-29T03:27:11.579Z,4.80
2023-01-29T03:28:11.597Z,4.70
2023-01-29T03:29:11.569Z,4.30
2023-01-29T03:30:11.581Z,4.40
2023-01-29T03:31:11.584Z,4.40
2023-01-29T03:32:11.611Z,4.30
2023-01-29T03:33:11.576Z,5.00
2023-01-29T03:34:11.563Z,4.40
2023-01-29T03:35:11.511Z,4.30
2023-01-29T03:36:11.520Z,4.80
2023-01-29T03:37:11.509Z,5.10
2023-01-29T03:38:11.495Z,4.30
2023-01-29T03:39:11.518Z,4.40
2023-01-29T03:40:11.473Z,4.10
2023-01-29T03:41:11.454Z,4.60
2023-01-29T03:42:11.435Z,4.10
2023-01-29T03:43:11.442Z,4.60
2023-01-29T03:44:11.432Z,4.20
2023-01-29T03:45:11.465Z,4.60
2023-01-29T03:46:11.492Z,4.80
2023-01-29T03:47:11.385Z,4.20
2023-01-29T03:48:11.376Z,4.60
2023-01-29T03:49:11.357Z,4.30
2023-01-29T03:50:11.418Z,3.60
2023-01-29T03:51:11.325Z,4.70
2023-01-29T03:52:11.326Z,4.60
2023-01-29T03:53:11.399Z,4.50
2023-01-29T03:54:11.316Z,4.60
2023-01-29T03:55:11.312Z,4.80
2023-01-29T03:56:11.309Z,3.90
2023-01-29T03:57:11.335Z,4.30
2023-01-29T03:58:11.290Z,4.30
2023-01-29T03:59:11.279Z,4.70
2023-01-29T04:00:11.252Z,4.70
2023-01-29T04:01:11.270Z,4.30
2023-01-29T04:02:11.232Z,4.60
2023-01-29T04:03:11.250Z,3.70
2023-01-29T04:04:11.485Z,4.00
2023-01-29T04:05:11.198Z,4.10
2023-01-29T04:06:11.197Z,4.20
2023-01-29T04:07:11.203Z,3.70
2023-01-29T04:08:11.186Z,4.70
2023-01-29T04:09:11.160Z,4.30
2023-01-29T04:10:11.143Z,4.90
2023-01-29T04:11:11.145Z,4.60
2023-01-29T04:12:11.127Z,4.40
2023-01-29T04:13:11.124Z,4.00
2023-01-29T04:14:11.116Z,4.20
2023-01-29T04:15:11.107Z,4.20
2023-01-29T04:16:11.172Z,4.40
2023-01-29T04:17:11.088Z,4.50
2023-01-29T04:18:11.071Z,4.60
2023-01-29T04:19:11.087Z,4.60
2023-01-29T04:20:11.049Z,4.00
2023-01-29T04:21:11.032Z,4.50
2023-01-29T04:22:11.028Z,5.00
2023-01-29T04:23:11.027Z,4.00
2023-01-29T04:24:11.002Z,4.20
2023-01-29T04:25:11.042Z,3.90
2023-01-29T04:26:10.978Z,4.40
2023-01-29T04:27:10.955Z,4.20
2023-01-29T04:28:10.986Z,3.80
2023-01-29T04:29:10.982Z,3.80
2023-01-29T04:30:10.938Z,4.20
2023-01-29T04:31:11.112Z,4.60
2023-01-29T04:32:10.926Z,3.90
2023-01-29T04:33:10.981Z,4.70
2023-01-29T04:34:10.909Z,4.00
2023-01-29T04:35:10.920Z,3.70
2023-01-29T04:36:10.883Z,4.40
2023-01-29T04:37:10.851Z,4.20
2023-01-29T04:38:10.914Z,4.40
2023-01-29T04:39:11.969Z,3.90
2023-01-29T04:40:10.826Z,4.50
2023-01-29T04:41:10.824Z,4.30
2023-01-29T04:42:10.822Z,4.10
2023-01-29T04:43:10.828Z,4.00
2023-01-29T04:44:10.804Z,4.50
2023-01-29T04:45:10.783Z,3.60
2023-01-29T04:46:10.771Z,3.90
2023-01-29T04:47:10.846Z,4.10
2023-01-29T04:48:10.786Z,4.40
2023-01-29T04:49:10.744Z,3.70
2023-01-29T04:50:10.724Z,4.80
2023-01-29T04:51:10.782Z,4.30
2023-01-29T04:52:10.719Z,3.70
2023-01-29T04:53:10.724Z,4.40
2023-01-29T04:54:10.700Z,3.90
2023-01-29T04:55:10.714Z,4.50
2023-01-29T04:56:10.668Z,3.50
2023-01-29T04:57:10.661Z,4.80
2023-01-29T04:58:10.670Z,3.60
2023-01-29T04:59:10.641Z,4.00
2023-01-29T05:00:10.625Z,3.60
2023-01-29T05:01:10.631Z,4.00
2023-01-29T05:02:10.663Z,4.10
2023-01-29T05:03:10.614Z,3.60
2023-01-29T05:04:10.614Z,4.00
2023-01-29T05:05:10.636Z,4.60
2023-01-29T05:06:10.584Z,3.60
2023-01-29T05:07:10.568Z,4.60
2023-01-29T05:08:10.561Z,4.90
2023-01-29T05:09:10.533Z,4.20
2023-01-29T05:10:10.525Z,3.70
2023-01-29T05:11:10.510Z,3.80
2023-01-29T05:12:10.579Z,3.50
2023-01-29T05:13:10.497Z,4.40
2023-01-29T05:14:10.502Z,3.60
2023-01-29T05:15:10.517Z,4.00
2023-01-29T05:16:10.530Z,4.30
2023-01-29T05:17:10.444Z,4.40
2023-01-29T05:18:10.515Z,3.70
2023-01-29T05:19:10.438Z,4.50
2023-01-29T05:20:10.429Z,4.50
2023-01-29T05:21:10.406Z,4.20
2023-01-29T05:22:10.405Z,3.90
2023-01-29T05:23:10.424Z,3.80
2023-01-29T05:24:10.404Z,4.60
2023-01-29T05:25:10.352Z,4.70
2023-01-29T05:26:10.391Z,3.80
2023-01-29T05:27:10.368Z,4.50
2023-01-29T05:28:10.360Z,3.70
2023-01-29T05:29:10.346Z,4.40
2023-01-29T05:30:10.336Z,4.40
2023-01-29T05:31:10.433Z,4.70
2023-01-29T05:32:10.289Z,4.10
2023-01-29T05:33:10.325Z,4.50
2023-01-29T05:34:10.269Z,4.20
2023-01-29T05:35:10.246Z,4.80
2023-01-29T05:36:10.241Z,3.90
2023-01-29T05:37:10.237Z,4.30
2023-01-29T05:38:10.301Z,3.80
2023-01-29T05:39:10.231Z,3.70
2023-01-29T05:40:10.204Z,4.00
2023-01-29T05:41:10.210Z,4.70
2023-01-29T05:42:10.192Z,4.10
2023-01-29T05:43:10.256Z,3.80
2023-01-29T05:44:10.183Z,4.40
2023-01-29T05:45:10.191Z,3.70
2023-01-29T05:46:10.156Z,4.00
2023-01-29T05:47:10.149Z,4.00
2023-01-29T05:48:10.158Z,4.10
2023-01-29T05:49:10.113Z,4.00
2023-01-29T05:50:10.119Z,4.40
2023-01-29T05:51:10.109Z,3.70
2023-01-29T05:52:10.072Z,3.80
2023-01-29T05:53:10.093Z,4.10
2023-01-29T05:54:10.089Z,4.60
2023-01-29T05:55:10.074Z,3.90
2023-01-29T05:56:10.055Z,4.00
2023-01-29T05:57:10.029Z,4.60
2023-01-29T05:58:10.019Z,3.60
2023-01-29T05:59:10.000Z,4.00
2023-01-29T06:00:10.101Z,4.10
2023-01-29T06:01:09.999Z,4.10
2023-01-29T06:02:10.028Z,3.80
2023-01-29T06:03:10.079Z,3.80
2023-01-29T06:04:09.954Z,4.10
2023-01-29T06:05:09.979Z,4.10
2023-01-29T06:06:09.933Z,3.90
2023-01-29T06:07:09.922Z,3.70
2023-01-29T06:08:09.946Z,3.80
2023-01-29T06:09:09.901Z,3.70
2023-01-29T06:10:09.894Z,4.00
2023-01-29T06:11:09.917Z,3.80
2023-01-29T06:12:09.874Z,3.70
2023-01-29T06:13:09.925Z,4.60
2023-01-29T06:14:09.869Z,4.00
2023-01-29T06:15:09.835Z,3.50
2023-01-29T06:16:09.939Z,3.50
2023-01-29T06:17:09.816Z,4.40
2023-01-29T06:18:09.820Z,4.20
2023-01-29T06:19:09.807Z,3.80
2023-01-29T06:20:09.849Z,3.80
2023-01-29T06:21:09.815Z,4.00
2023-01-29T06:22:09.756Z,3.90
2023-01-29T06:23:09.793Z,4.00
2023-01-29T06:24:09.786Z,4.00
2023-01-29T06:25:09.751Z,3.30
2023-01-29T06:26:09.744Z,3.60
2023-01-29T06:27:09.793Z,3.40
2023-01-29T06:28:09.724Z,3.70
2023-01-29T06:29:09.693Z,3.90
2023-01-29T06:30:09.734Z,4.20
2023-01-29T06:31:33.100Z,4.30
2023-01-29T06:32:10.698Z,3.40
2023-01-29T06:33:09.718Z,3.40
2023-01-29T06:34:09.650Z,4.10
2023-01-29T06:35:09.636Z,4.10
2023-01-29T06:36:09.621Z,3.70
2023-01-29T06:37:09.646Z,4.00
2023-01-29T06:38:09.635Z,3.90
2023-01-29T06:39:09.647Z,4.10
2023-01-29T06:40:09.583Z,4.30
2023-01-29T06:41:09.592Z,3.70
2023-01-29T06:42:09.577Z,3.90
2023-01-29T06:43:09.708Z,4.20
2023-01-29T06:44:09.547Z,3.60
2023-01-29T06:45:09.540Z,4.00
2023-01-29T06:46:09.554Z,4.20
2023-01-29T06:47:09.520Z,3.90
2023-01-29T06:48:09.770Z,4.30
2023-01-29T06:49:09.509Z,4.00
2023-01-29T06:50:09.509Z,3.80
2023-01-29T06:51:09.458Z,3.80
2023-01-29T06:52:09.463Z,4.40
2023-01-29T06:53:09.461Z,3.50
2023-01-29T06:54:09.448Z,3.50
2023-01-29T06:55:09.438Z,3.70
2023-01-29T06:56:09.485Z,3.80
2023-01-29T06:57:09.406Z,4.10
2023-01-29T06:58:09.411Z,3.50
2023-01-29T06:59:09.385Z,4.70
2023-01-29T07:00:09.375Z,4.30
2023-01-29T07:01:09.477Z,4.40
2023-01-29T07:02:09.396Z,6.20
2023-01-29T07:03:09.394Z,5.00
2023-01-29T07:04:09.391Z,4.30
2023-01-29T07:05:09.345Z,5.60
2023-01-29T07:06:09.327Z,7.10
2023-01-29T07:07:09.312Z,7.70
2023-01-29T07:08:09.303Z,6.40
2023-01-29T07:09:09.280Z,5.60
2023-01-29T07:10:09.291Z,5.60
2023-01-29T07:11:09.250Z,5.20
2023-01-29T07:12:09.247Z,5.50
2023-01-29T07:13:09.281Z,6.30
2023-01-29T07:14:09.268Z,5.80
2023-01-29T07:15:09.214Z,6.60
2023-01-29T07:16:09.233Z,6.10
2023-01-29T07:17:09.278Z,7.50
2023-01-29T07:18:09.233Z,4.90
2023-01-29T07:19:09.204Z,5.90
2023-01-29T07:20:09.183Z,5.10
2023-01-29T07:21:09.159Z,4.40
2023-01-29T07:22:09.208Z,4.50
2023-01-29T07:23:09.165Z,3.70
2023-01-29T07:24:09.238Z,4.80
2023-01-29T07:25:09.137Z,4.10
2023-01-29T07:26:09.105Z,4.40
2023-01-29T07:27:09.135Z,4.00
2023-01-29T07:28:09.163Z,3.60
2023-01-29T07:29:09.085Z,4.00
2023-01-29T07:30:09.059Z,4.90
2023-01-29T07:31:09.119Z,4.00
2023-01-29T07:32:09.081Z,3.90
2023-01-29T07:33:09.074Z,3.80
2023-01-29T07:34:09.022Z,3.80
2023-01-29T07:35:09.003Z,4.70
2023-01-29T07:36:11.904Z,4.30
2023-01-29T07:37:10.443Z,4.00
2023-01-29T07:38:08.997Z,4.70
2023-01-29T07:39:08.963Z,4.40
2023-01-29T07:40:08.960Z,4.90
2023-01-29T07:41:16.994Z,4.60
2023-01-29T07:42:08.935Z,4.60
2023-01-29T07:43:08.934Z,5.00
2023-01-29T07:44:08.911Z,5.00
2023-01-29T07:45:15.672Z,4.30
2023-01-29T07:46:15.857Z,4.80
2023-01-29T07:47:09.001Z,4.60
2023-01-29T07:48:08.871Z,4.90
2023-01-29T07:49:08.861Z,4.50
2023-01-29T07:50:08.895Z,5.40
2023-01-29T07:51:09.219Z,4.70
2023-01-29T07:52:08.848Z,5.40
2023-01-29T07:53:08.848Z,4.80
2023-01-29T07:54:11.356Z,4.90
2023-01-29T07:55:09.179Z,4.80
2023-01-29T07:56:08.810Z,5.20
2023-01-29T07:57:08.828Z,4.60
2023-01-29T07:58:08.793Z,4.10
2023-01-29T07:59:08.766Z,4.60
2023-01-29T08:00:08.761Z,4.20
2023-01-29T08:01:08.840Z,3.90
2023-01-29T08:02:08.829Z,4.20
2023-01-29T08:03:15.155Z,5.20
2023-01-29T08:04:09.130Z,5.00
2023-01-29T08:05:16.190Z,4.30
2023-01-29T08:06:08.677Z,4.70
2023-01-29T08:07:08.668Z,5.20
2023-01-29T08:08:08.675Z,5.20
2023-01-29T08:09:08.689Z,4.30
2023-01-29T08:10:08.646Z,4.70
2023-01-29T08:11:08.639Z,4.40
2023-01-29T08:13:19.205Z,4.90
2023-01-29T08:14:08.599Z,5.00
2023-01-29T08:15:08.587Z,5.10
2023-01-29T08:16:08.638Z,4.30
2023-01-29T08:17:09.195Z,4.70
2023-01-29T08:18:08.627Z,4.60
2023-01-29T08:19:08.557Z,4.70
2023-01-29T08:20:08.547Z,4.70
2023-01-29T08:22:17.031Z,4.30
2023-01-29T08:23:08.524Z,5.00
2023-01-29T08:24:08.541Z,4.50
2023-01-29T08:25:08.864Z,4.90
2023-01-29T08:26:08.469Z,4.50
2023-01-29T08:27:08.469Z,4.30
2023-01-29T08:28:08.468Z,4.30
2023-01-29T08:29:08.472Z,3.80
2023-01-29T08:31:17.593Z,4.30
2023-01-29T08:32:08.415Z,4.90
2023-01-29T08:33:08.423Z,5.00
2023-01-29T08:34:08.386Z,5.50
2023-01-29T08:35:08.378Z,5.00
2023-01-29T08:36:08.399Z,4.90
2023-01-29T08:37:08.375Z,4.60
2023-01-29T08:38:09.302Z,5.30
2023-01-29T08:40:16.624Z,5.30
2023-01-29T08:41:08.314Z,5.40
2023-01-29T08:42:08.321Z,5.00
2023-01-29T08:43:09.519Z,4.60
2023-01-29T08:44:08.284Z,5.90
2023-01-29T08:45:08.271Z,13.50
2023-01-29T08:46:08.354Z,27.90
2023-01-29T08:47:09.574Z,15.10
2023-01-29T11:24:22.313Z,3.20
2023-01-29T11:25:22.292Z,3.40
2023-01-29T11:26:22.344Z,3.10
2023-01-29T11:27:22.277Z,3.00
2023-01-29T11:28:22.411Z,2.50
2023-01-29T11:29:22.384Z,2.90
2023-01-29T11:30:26.075Z,6.50
2023-01-29T11:31:22.389Z,10.10
2023-01-29T11:32:22.378Z,3.20
2023-01-29T11:33:22.225Z,3.30
2023-01-29T11:34:25.988Z,5.90
2023-01-29T11:35:29.475Z,6.10
2023-01-29T11:37:50.779Z,3.50
2023-01-29T11:38:50.351Z,4.40
2023-01-29T11:39:55.755Z,3.40
2023-01-29T11:40:53.702Z,3.10
2023-01-29T11:41:50.558Z,4.70
2023-01-29T11:42:50.434Z,3.50
2023-01-29T11:44:05.383Z,3.30
2023-01-29T11:44:49.875Z,3.60
2023-01-29T11:45:51.877Z,3.70
2023-01-29T11:48:54.814Z,3.30
2023-01-29T11:49:53.057Z,8.10
2023-01-29T11:50:52.853Z,3.60
2023-01-29T11:51:52.994Z,3.80
2023-01-29T11:52:52.790Z,3.70
2023-01-29T11:53:52.784Z,3.50
2023-01-29T11:54:52.857Z,3.70
2023-01-29T11:55:52.823Z,3.70
2023-01-29T11:56:52.737Z,4.00
2023-01-29T11:57:52.755Z,3.50
2023-01-29T11:58:52.730Z,3.70
2023-01-29T11:59:52.720Z,3.40
2023-01-29T12:00:53.272Z,3.40
2023-01-29T12:01:53.210Z,3.70
2023-01-29T12:02:52.695Z,3.80
2023-01-29T12:03:52.892Z,4.10
2023-01-29T12:04:52.652Z,4.70
2023-01-29T12:05:52.925Z,4.60
2023-01-29T12:06:52.689Z,5.20
2023-01-29T12:07:52.700Z,3.80
2023-01-29T12:08:52.725Z,4.20
2023-01-29T12:09:52.852Z,5.00
2023-01-29T12:10:52.787Z,3.70
2023-01-29T12:11:52.689Z,3.30
2023-01-29T12:12:52.575Z,2.70
2023-01-29T12:13:52.625Z,2.50
2023-01-29T12:14:52.579Z,2.80
2023-01-29T12:15:54.823Z,3.50
2023-01-29T12:16:54.623Z,2.60
2023-01-29T12:17:55.055Z,3.10
2023-01-29T12:18:58.982Z,3.10
2023-01-29T12:19:52.839Z,3.10
2023-01-29T12:20:52.890Z,3.20
2023-01-29T12:21:52.543Z,3.70
2023-01-29T12:23:31.105Z,3.30
2023-01-29T12:24:24.044Z,3.10
2023-01-29T12:25:16.158Z,2.50
2023-01-29T12:26:17.823Z,2.70
2023-01-29T12:26:54.074Z,2.60
2023-01-29T12:27:53.464Z,5.00
2023-01-29T12:28:53.109Z,3.80
2023-01-29T12:29:59.600Z,4.10
2023-01-29T12:30:52.760Z,4.50
2023-01-29T12:31:52.675Z,9.20
2023-01-29T12:32:52.611Z,3.80
2023-01-29T12:33:52.403Z,3.10
2023-01-29T12:34:52.652Z,3.20
2023-01-29T12:35:53.320Z,3.10
2023-01-29T12:36:52.374Z,4.00
2023-01-29T12:37:53.459Z,5.60
2023-01-29T12:38:52.360Z,5.70
2023-01-29T12:39:52.325Z,4.50
2023-01-29T12:40:52.265Z,4.90
2023-01-29T12:41:52.296Z,3.80
2023-01-29T12:42:54.010Z,3.00
2023-01-29T12:43:52.822Z,3.30
2023-01-29T12:44:53.125Z,3.60
2023-01-29T12:45:53.327Z,3.70
2023-01-29T12:46:53.844Z,5.90
2023-01-29T12:47:52.493Z,3.80
2023-01-29T12:49:32.761Z,3.20
2023-01-29T12:49:52.258Z,3.10
2023-01-29T12:50:52.803Z,3.10
2023-01-29T12:52:28.515Z,3.30
2023-01-29T12:52:54.259Z,3.40
2023-01-29T12:53:53.418Z,3.10
2023-01-29T12:54:52.433Z,3.50
2023-01-29T12:55:55.044Z,3.40
2023-01-29T12:56:55.205Z,3.10
2023-01-29T12:57:52.118Z,3.20
2023-01-29T12:58:52.093Z,3.30
2023-01-29T12:59:52.085Z,3.50
2023-01-29T13:01:02.877Z,3.20
2023-01-29T13:01:54.851Z,2.80
2023-01-29T13:02:55.550Z,2.90
2023-01-29T13:03:52.054Z,3.30
2023-01-29T13:04:52.009Z,3.60
2023-01-29T13:05:52.016Z,3.40
2023-01-29T13:06:51.993Z,3.50
2023-01-29T13:07:51.989Z,3.40
2023-01-29T13:08:52.105Z,3.10
2023-01-29T13:09:51.999Z,3.30
2023-01-29T13:10:53.372Z,3.20
2023-01-29T13:11:52.144Z,3.30
2023-01-29T13:12:53.107Z,3.20
2023-01-29T13:14:30.263Z,2.80
2023-01-29T13:14:52.028Z,3.20
2023-01-29T13:15:52.072Z,3.00
2023-01-29T13:16:51.918Z,3.10
2023-01-29T13:17:51.899Z,3.40
2023-01-29T13:18:52.408Z,3.60
2023-01-29T13:19:51.948Z,3.30
2023-01-29T13:20:51.853Z,3.10
2023-01-29T13:21:51.849Z,3.20
2023-01-29T13:22:51.835Z,2.90
2023-01-29T13:23:51.816Z,3.40
2023-01-29T13:25:06.992Z,3.50
2023-01-29T13:25:53.059Z,3.30
2023-01-29T13:26:51.976Z,3.20
2023-01-29T13:27:51.828Z,3.10
2023-01-29T13:28:54.912Z,3.40
2023-01-29T13:29:54.365Z,3.20
2023-01-29T13:30:52.094Z,2.90
2023-01-29T13:32:02.167Z,3.40
2023-01-29T13:32:54.202Z,3.90
2023-01-29T13:33:51.754Z,3.10
2023-01-29T13:34:52.445Z,3.40
2023-01-29T13:35:52.024Z,3.40
2023-01-29T13:36:52.159Z,3.20
2023-01-29T13:37:51.689Z,3.30
2023-01-29T13:38:52.070Z,3.60
2023-01-29T13:39:51.739Z,3.40
2023-01-29T13:40:51.719Z,3.50
2023-01-29T13:41:51.605Z,3.10
2023-01-29T13:42:51.592Z,3.60
2023-01-29T13:43:51.677Z,3.60
2023-01-29T13:44:51.594Z,3.30
2023-01-29T13:45:51.612Z,3.30
2023-01-29T13:46:51.594Z,3.40
2023-01-29T13:47:51.931Z,4.00
2023-01-29T13:48:51.623Z,3.20
2023-01-29T13:49:51.522Z,3.30
2023-01-29T13:50:51.656Z,3.40
2023-01-29T13:51:51.724Z,3.10
2023-01-29T13:52:53.776Z,3.40
2023-01-29T13:53:51.507Z,3.00
2023-01-29T13:54:51.470Z,2.70
2023-01-29T13:55:51.979Z,3.40
2023-01-29T13:56:53.000Z,3.70
2023-01-29T13:57:54.719Z,3.40
2023-01-29T13:58:51.467Z,3.10
2023-01-29T13:59:55.300Z,3.30
2023-01-29T14:00:51.501Z,2.90
2023-01-29T14:02:20.911Z,3.30
2023-01-29T14:02:59.589Z,2.90
2023-01-29T14:04:08.601Z,3.10
2023-01-29T14:04:51.374Z,3.20
2023-01-29T14:05:51.477Z,3.00
2023-01-29T14:06:51.889Z,3.40
2023-01-29T14:08:12.902Z,3.70
2023-01-29T14:08:56.407Z,3.20
2023-01-29T14:09:51.382Z,3.40
2023-01-29T14:10:51.307Z,3.20
2023-01-29T14:11:57.495Z,3.70
2023-01-29T14:12:52.467Z,3.90
2023-01-29T14:13:51.387Z,3.50
2023-01-29T14:14:51.980Z,4.50
2023-01-29T14:15:56.030Z,3.50
2023-01-29T14:16:51.296Z,3.70
2023-01-29T14:17:59.111Z,3.60
2023-01-29T14:18:56.222Z,4.40
2023-01-29T14:19:51.366Z,3.70
2023-01-29T14:20:51.385Z,3.40
2023-01-29T14:21:52.053Z,3.50
2023-01-29T14:22:51.177Z,3.50
2023-01-29T14:23:53.185Z,3.50
2023-01-29T14:24:51.208Z,3.40
2023-01-29T14:25:51.137Z,3.10
2023-01-29T14:26:51.154Z,3.20
2023-01-29T14:27:51.205Z,3.60
2023-01-29T14:28:51.196Z,3.50
2023-01-29T14:29:51.172Z,3.50
2023-01-29T14:30:51.181Z,3.50
2023-01-29T14:31:51.194Z,3.50
2023-01-29T14:32:51.115Z,3.30
2023-01-29T14:33:54.440Z,3.20
2023-01-29T14:34:51.066Z,3.90
2023-01-29T14:35:51.219Z,3.10
2023-01-29T14:36:51.054Z,3.40
2023-01-29T14:37:51.003Z,3.10
2023-01-29T14:38:52.594Z,3.10
2023-01-29T14:39:51.021Z,3.30
2023-01-29T14:40:51.467Z,3.00
2023-01-29T14:41:50.980Z,3.30
2023-01-29T14:42:50.952Z,3.60
2023-01-29T14:43:50.963Z,2.90
2023-01-29T14:44:51.155Z,3.00
2023-01-29T14:45:51.179Z,3.10
2023-01-29T14:46:50.942Z,3.20
2023-01-29T14:47:50.945Z,3.80
2023-01-29T14:48:50.907Z,4.10
2023-01-29T14:49:51.095Z,3.10
2023-01-29T14:50:50.889Z,3.80
2023-01-29T14:51:50.893Z,3.50
2023-01-29T14:52:50.886Z,3.30
2023-01-29T14:53:50.861Z,3.40
2023-01-29T14:54:50.856Z,3.70
2023-01-29T14:55:50.929Z,3.40
2023-01-29T14:56:50.793Z,3.40
2023-01-29T14:57:50.800Z,3.60
2023-01-29T14:58:53.203Z,4.10
2023-01-29T14:59:50.794Z,3.10
2023-01-29T15:00:50.815Z,3.20
2023-01-29T15:01:50.821Z,3.40
2023-01-29T15:02:59.848Z,3.40
2023-01-29T15:03:51.772Z,3.00
2023-01-29T15:04:50.728Z,3.20
2023-01-29T15:05:51.459Z,2.70
2023-01-29T15:06:50.694Z,3.00
2023-01-29T15:07:51.767Z,3.30
2023-01-29T15:08:51.362Z,3.10
2023-01-29T15:09:50.663Z,3.10
2023-01-29T15:10:50.803Z,2.70
2023-01-29T15:11:50.651Z,3.00
2023-01-29T15:12:50.691Z,2.80
2023-01-29T15:13:50.649Z,2.90
2023-01-29T15:14:50.624Z,3.50
2023-01-29T15:15:50.719Z,2.80
2023-01-29T15:16:50.647Z,3.40
2023-01-29T15:17:50.619Z,2.70
2023-01-29T15:18:50.565Z,3.30
2023-01-29T15:19:51.354Z,3.30
2023-01-29T15:20:50.719Z,3.30
2023-01-29T15:21:50.545Z,3.30
2023-01-29T15:22:50.581Z,2.90
2023-01-29T15:23:50.525Z,3.10
2023-01-29T15:24:50.521Z,3.10
2023-01-29T15:25:50.637Z,2.80
2023-01-29T15:26:51.246Z,3.50
2023-01-29T15:27:51.471Z,3.10
2023-01-29T15:28:58.493Z,2.70
2023-01-29T15:29:51.550Z,3.50
2023-01-29T15:30:50.651Z,3.20
2023-01-29T15:31:50.585Z,3.40
2023-01-29T15:32:50.430Z,3.20
2023-01-29T15:33:50.487Z,2.90
2023-01-29T15:34:52.451Z,3.20
2023-01-29T15:35:53.681Z,3.00
2023-01-29T15:36:51.400Z,2.90
2023-01-29T15:37:50.384Z,3.30
2023-01-29T15:38:50.401Z,3.20
2023-01-29T15:39:52.080Z,2.90
2023-01-29T15:40:50.341Z,3.00
2023-01-29T15:41:50.316Z,3.40
2023-01-29T15:42:50.353Z,2.90
2023-01-29T15:43:50.438Z,3.40
2023-01-29T15:44:50.304Z,2.90
2023-01-29T15:45:50.269Z,3.20
2023-01-29T15:46:50.289Z,3.20
2023-01-29T15:47:50.347Z,3.00
2023-01-29T15:48:50.274Z,3.20
2023-01-29T15:49:50.248Z,3.40
2023-01-29T15:50:50.227Z,3.50
2023-01-29T15:51:50.365Z,3.50
2023-01-29T15:52:53.078Z,3.20
2023-01-29T15:53:50.217Z,3.60
2023-01-29T15:54:50.184Z,3.40
2023-01-29T15:55:50.175Z,3.90
2023-01-29T15:56:50.199Z,3.30
2023-01-29T15:57:50.154Z,3.30
2023-01-29T15:58:50.152Z,3.00
2023-01-29T15:59:50.164Z,3.40
2023-01-29T16:00:50.250Z,3.20
2023-01-29T16:01:50.499Z,3.00